sensor_id;sensor_type;location;lat;lon;timestamp;P1;durP1;ratioP1;P2;durP2;ratioP2
49722;SDS011;43484;43.608;1.458;2023-12-20T00:01:05;21.50;;;15.18;;
49722;SDS011;43484;43.608;1.458;2023-12-20T00:03:32;23.25;;;16.33;;
49722;SDS011;43484;43.608;1.458;2023-12-20T00:06:07;22.67;;;15.05;;
49722;SDS011;43484;43.608;1.458;2023-12-20T00:08:35;22.73;;;15.70;;
49722;SDS011;43484;43.608;1.458;2023-12-20T00:11:01;24.77;;;15.57;;
49722;SDS011;43484;43.608;1.458;2023-12-20T00:13:28;27.20;;;16.55;;
49722;SDS011;43484;43.608;1.458;2023-12-20T00:15:55;27.52;;;16.63;;
49722;SDS011;43484;43.608;1.458;2023-12-20T00:18:21;24.73;;;16.67;;
49722;SDS011;43484;43.608;1.458;2023-12-20T00:20:49;24.50;;;15.18;;
49722;SDS011;43484;43.608;1.458;2023-12-20T00:23:16;24.27;;;16.00;;
49722;SDS011;43484;43.608;1.458;2023-12-20T00:25:43;24.35;;;14.45;;
49722;SDS011;43484;43.608;1.458;2023-12-20T00:28:09;25.63;;;16.35;;
49722;SDS011;43484;43.608;1.458;2023-12-20T00:30:36;23.23;;;15.02;;
49722;SDS011;43484;43.608;1.458;2023-12-20T00:33:03;20.63;;;15.65;;
49722;SDS011;43484;43.608;1.458;2023-12-20T00:35:30;23.17;;;15.30;;
49722;SDS011;43484;43.608;1.458;2023-12-20T00:37:57;25.95;;;15.23;;
49722;SDS011;43484;43.608;1.458;2023-12-20T00:40:25;21.42;;;15.05;;
49722;SDS011;43484;43.608;1.458;2023-12-20T00:42:52;20.52;;;13.95;;
49722;SDS011;43484;43.608;1.458;2023-12-20T00:45:19;19.63;;;14.32;;
49722;SDS011;43484;43.608;1.458;2023-12-20T00:47:45;25.23;;;15.70;;
49722;SDS011;43484;43.608;1.458;2023-12-20T00:50:12;22.05;;;16.73;;
49722;SDS011;43484;43.608;1.458;2023-12-20T00:52:39;22.20;;;16.05;;
49722;SDS011;43484;43.608;1.458;2023-12-20T00:55:06;22.25;;;16.58;;
49722;SDS011;43484;43.608;1.458;2023-12-20T00:57:33;25.88;;;16.35;;
49722;SDS011;43484;43.608;1.458;2023-12-20T01:00:00;21.77;;;16.75;;
49722;SDS011;43484;43.608;1.458;2023-12-20T01:02:27;24.65;;;16.13;;
49722;SDS011;43484;43.608;1.458;2023-12-20T01:04:54;27.25;;;16.55;;
49722;SDS011;43484;43.608;1.458;2023-12-20T01:07:20;25.02;;;16.48;;
49722;SDS011;43484;43.608;1.458;2023-12-20T01:09:47;27.55;;;18.02;;
49722;SDS011;43484;43.608;1.458;2023-12-20T01:12:14;20.40;;;15.93;;
49722;SDS011;43484;43.608;1.458;2023-12-20T01:14:41;24.48;;;17.20;;
49722;SDS011;43484;43.608;1.458;2023-12-20T01:17:07;27.05;;;16.85;;
49722;SDS011;43484;43.608;1.458;2023-12-20T01:19:34;21.35;;;16.60;;
49722;SDS011;43484;43.608;1.458;2023-12-20T01:22:01;22.08;;;17.92;;
49722;SDS011;43484;43.608;1.458;2023-12-20T01:24:28;24.05;;;17.75;;
49722;SDS011;43484;43.608;1.458;2023-12-20T01:26:54;21.90;;;16.15;;
49722;SDS011;43484;43.608;1.458;2023-12-20T01:29:21;20.83;;;16.65;;
49722;SDS011;43484;43.608;1.458;2023-12-20T01:31:48;23.98;;;16.25;;
49722;SDS011;43484;43.608;1.458;2023-12-20T01:34:15;28.38;;;18.13;;
49722;SDS011;43484;43.608;1.458;2023-12-20T01:36:42;24.77;;;17.08;;
49722;SDS011;43484;43.608;1.458;2023-12-20T01:39:09;27.98;;;17.92;;
49722;SDS011;43484;43.608;1.458;2023-12-20T01:41:50;23.95;;;17.20;;
49722;SDS011;43484;43.608;1.458;2023-12-20T01:44:17;24.10;;;17.25;;
49722;SDS011;43484;43.608;1.458;2023-12-20T01:46:43;25.92;;;17.15;;
49722;SDS011;43484;43.608;1.458;2023-12-20T01:49:11;23.23;;;16.98;;
49722;SDS011;43484;43.608;1.458;2023-12-20T01:51:38;22.10;;;16.00;;
49722;SDS011;43484;43.608;1.458;2023-12-20T01:54:05;26.35;;;16.55;;
49722;SDS011;43484;43.608;1.458;2023-12-20T01:56:32;25.02;;;18.08;;
49722;SDS011;43484;43.608;1.458;2023-12-20T01:59:00;22.20;;;17.40;;
49722;SDS011;43484;43.608;1.458;2023-12-20T02:01:27;25.60;;;16.30;;
49722;SDS011;43484;43.608;1.458;2023-12-20T02:03:55;22.25;;;16.25;;
49722;SDS011;43484;43.608;1.458;2023-12-20T02:06:23;20.42;;;16.17;;
49722;SDS011;43484;43.608;1.458;2023-12-20T02:08:51;26.65;;;16.75;;
49722;SDS011;43484;43.608;1.458;2023-12-20T02:11:18;23.48;;;16.58;;
49722;SDS011;43484;43.608;1.458;2023-12-20T02:13:45;23.02;;;16.25;;
49722;SDS011;43484;43.608;1.458;2023-12-20T02:16:12;20.13;;;15.43;;
49722;SDS011;43484;43.608;1.458;2023-12-20T02:18:39;21.48;;;15.85;;
49722;SDS011;43484;43.608;1.458;2023-12-20T02:21:06;19.92;;;15.00;;
49722;SDS011;43484;43.608;1.458;2023-12-20T02:23:32;21.83;;;15.32;;
49722;SDS011;43484;43.608;1.458;2023-12-20T02:25:59;21.52;;;15.48;;
49722;SDS011;43484;43.608;1.458;2023-12-20T02:28:26;19.00;;;14.82;;
49722;SDS011;43484;43.608;1.458;2023-12-20T02:30:53;17.65;;;14.00;;
49722;SDS011;43484;43.608;1.458;2023-12-20T02:33:19;18.48;;;13.57;;
49722;SDS011;43484;43.608;1.458;2023-12-20T02:35:46;25.50;;;14.55;;
49722;SDS011;43484;43.608;1.458;2023-12-20T02:38:13;20.70;;;14.77;;
49722;SDS011;43484;43.608;1.458;2023-12-20T02:40:40;19.33;;;13.75;;
49722;SDS011;43484;43.608;1.458;2023-12-20T02:43:14;19.70;;;14.73;;
49722;SDS011;43484;43.608;1.458;2023-12-20T02:45:44;20.52;;;14.35;;
49722;SDS011;43484;43.608;1.458;2023-12-20T02:48:11;23.48;;;14.55;;
49722;SDS011;43484;43.608;1.458;2023-12-20T02:50:37;16.13;;;12.75;;
49722;SDS011;43484;43.608;1.458;2023-12-20T02:53:04;19.52;;;13.00;;
49722;SDS011;43484;43.608;1.458;2023-12-20T02:55:30;18.55;;;13.48;;
49722;SDS011;43484;43.608;1.458;2023-12-20T02:57:57;19.63;;;12.75;;
49722;SDS011;43484;43.608;1.458;2023-12-20T03:00:24;18.70;;;13.45;;
49722;SDS011;43484;43.608;1.458;2023-12-20T03:02:51;19.38;;;12.95;;
49722;SDS011;43484;43.608;1.458;2023-12-20T03:05:17;15.85;;;13.10;;
49722;SDS011;43484;43.608;1.458;2023-12-20T03:07:44;15.57;;;13.52;;
49722;SDS011;43484;43.608;1.458;2023-12-20T03:10:12;16.38;;;12.70;;
49722;SDS011;43484;43.608;1.458;2023-12-20T03:12:49;17.00;;;13.15;;
49722;SDS011;43484;43.608;1.458;2023-12-20T03:15:16;14.80;;;12.73;;
49722;SDS011;43484;43.608;1.458;2023-12-20T03:17:42;20.35;;;14.27;;
49722;SDS011;43484;43.608;1.458;2023-12-20T03:20:10;19.98;;;13.50;;
49722;SDS011;43484;43.608;1.458;2023-12-20T03:22:37;17.98;;;14.38;;
49722;SDS011;43484;43.608;1.458;2023-12-20T03:25:04;18.95;;;15.07;;
49722;SDS011;43484;43.608;1.458;2023-12-20T03:27:31;19.67;;;16.13;;
49722;SDS011;43484;43.608;1.458;2023-12-20T03:29:57;26.40;;;16.77;;
49722;SDS011;43484;43.608;1.458;2023-12-20T03:32:24;19.23;;;15.35;;
49722;SDS011;43484;43.608;1.458;2023-12-20T03:34:51;23.33;;;16.52;;
49722;SDS011;43484;43.608;1.458;2023-12-20T03:37:17;30.05;;;18.17;;
49722;SDS011;43484;43.608;1.458;2023-12-20T03:39:44;21.58;;;16.80;;
49722;SDS011;43484;43.608;1.458;2023-12-20T03:42:11;22.40;;;17.55;;
49722;SDS011;43484;43.608;1.458;2023-12-20T03:44:39;22.65;;;17.88;;
49722;SDS011;43484;43.608;1.458;2023-12-20T03:47:06;28.25;;;18.40;;
49722;SDS011;43484;43.608;1.458;2023-12-20T03:49:33;25.95;;;19.00;;
49722;SDS011;43484;43.608;1.458;2023-12-20T03:52:03;22.08;;;19.08;;
49722;SDS011;43484;43.608;1.458;2023-12-20T03:54:31;27.95;;;18.27;;
49722;SDS011;43484;43.608;1.458;2023-12-20T03:56:57;25.58;;;19.48;;
49722;SDS011;43484;43.608;1.458;2023-12-20T03:59:24;24.35;;;17.77;;
49722;SDS011;43484;43.608;1.458;2023-12-20T04:01:51;25.70;;;18.08;;
49722;SDS011;43484;43.608;1.458;2023-12-20T04:04:18;26.80;;;19.17;;
49722;SDS011;43484;43.608;1.458;2023-12-20T04:06:45;24.65;;;18.70;;
49722;SDS011;43484;43.608;1.458;2023-12-20T04:09:12;28.05;;;17.58;;
49722;SDS011;43484;43.608;1.458;2023-12-20T04:11:39;24.60;;;18.00;;
49722;SDS011;43484;43.608;1.458;2023-12-20T04:14:05;22.75;;;17.88;;
49722;SDS011;43484;43.608;1.458;2023-12-20T04:16:34;22.80;;;17.98;;
49722;SDS011;43484;43.608;1.458;2023-12-20T04:19:01;22.13;;;18.30;;
49722;SDS011;43484;43.608;1.458;2023-12-20T04:21:29;23.23;;;17.80;;
49722;SDS011;43484;43.608;1.458;2023-12-20T04:23:55;22.02;;;17.42;;
49722;SDS011;43484;43.608;1.458;2023-12-20T04:26:22;25.08;;;16.88;;
49722;SDS011;43484;43.608;1.458;2023-12-20T04:28:49;22.42;;;16.10;;
49722;SDS011;43484;43.608;1.458;2023-12-20T04:31:18;23.75;;;16.58;;
49722;SDS011;43484;43.608;1.458;2023-12-20T04:33:45;21.80;;;16.27;;
49722;SDS011;43484;43.608;1.458;2023-12-20T04:36:12;20.38;;;16.15;;
49722;SDS011;43484;43.608;1.458;2023-12-20T04:38:39;21.73;;;16.52;;
49722;SDS011;43484;43.608;1.458;2023-12-20T04:41:05;23.60;;;17.25;;
49722;SDS011;43484;43.608;1.458;2023-12-20T04:43:32;24.15;;;17.80;;
49722;SDS011;43484;43.608;1.458;2023-12-20T04:45:59;18.60;;;15.65;;
49722;SDS011;43484;43.608;1.458;2023-12-20T04:48:26;21.25;;;15.60;;
49722;SDS011;43484;43.608;1.458;2023-12-20T04:50:52;19.52;;;14.77;;
49722;SDS011;43484;43.608;1.458;2023-12-20T04:53:19;17.65;;;14.20;;
49722;SDS011;43484;43.608;1.458;2023-12-20T04:55:46;19.27;;;14.05;;
49722;SDS011;43484;43.608;1.458;2023-12-20T04:58:12;18.20;;;13.70;;
49722;SDS011;43484;43.608;1.458;2023-12-20T05:00:39;15.30;;;11.75;;
49722;SDS011;43484;43.608;1.458;2023-12-20T05:03:06;12.93;;;11.05;;
49722;SDS011;43484;43.608;1.458;2023-12-20T05:05:33;14.75;;;10.77;;
49722;SDS011;43484;43.608;1.458;2023-12-20T05:08:00;12.60;;;9.95;;
49722;SDS011;43484;43.608;1.458;2023-12-20T05:10:26;13.70;;;10.25;;
49722;SDS011;43484;43.608;1.458;2023-12-20T05:12:54;13.82;;;9.30;;
49722;SDS011;43484;43.608;1.458;2023-12-20T05:15:21;10.20;;;9.18;;
49722;SDS011;43484;43.608;1.458;2023-12-20T05:17:47;10.02;;;8.95;;
49722;SDS011;43484;43.608;1.458;2023-12-20T05:20:14;11.98;;;8.63;;
49722;SDS011;43484;43.608;1.458;2023-12-20T05:22:42;11.05;;;8.20;;
49722;SDS011;43484;43.608;1.458;2023-12-20T05:25:08;9.93;;;8.50;;
49722;SDS011;43484;43.608;1.458;2023-12-20T05:27:35;10.95;;;8.43;;
49722;SDS011;43484;43.608;1.458;2023-12-20T05:30:02;8.52;;;7.43;;
49722;SDS011;43484;43.608;1.458;2023-12-20T05:32:31;12.40;;;7.55;;
49722;SDS011;43484;43.608;1.458;2023-12-20T05:34:57;9.32;;;8.13;;
49722;SDS011;43484;43.608;1.458;2023-12-20T05:37:24;7.60;;;6.53;;
49722;SDS011;43484;43.608;1.458;2023-12-20T05:39:51;10.60;;;7.63;;
49722;SDS011;43484;43.608;1.458;2023-12-20T05:42:18;8.48;;;6.70;;
49722;SDS011;43484;43.608;1.458;2023-12-20T05:44:44;7.63;;;6.28;;
49722;SDS011;43484;43.608;1.458;2023-12-20T05:47:11;8.05;;;6.55;;
49722;SDS011;43484;43.608;1.458;2023-12-20T05:49:37;8.68;;;6.05;;
49722;SDS011;43484;43.608;1.458;2023-12-20T05:52:04;8.07;;;6.57;;
49722;SDS011;43484;43.608;1.458;2023-12-20T05:54:31;7.70;;;6.30;;
49722;SDS011;43484;43.608;1.458;2023-12-20T05:56:58;7.25;;;6.32;;
49722;SDS011;43484;43.608;1.458;2023-12-20T05:59:24;6.70;;;5.90;;
49722;SDS011;43484;43.608;1.458;2023-12-20T06:01:51;7.43;;;5.75;;
49722;SDS011;43484;43.608;1.458;2023-12-20T06:04:18;10.00;;;6.53;;
49722;SDS011;43484;43.608;1.458;2023-12-20T06:06:47;7.40;;;6.03;;
49722;SDS011;43484;43.608;1.458;2023-12-20T06:09:15;6.03;;;5.10;;
49722;SDS011;43484;43.608;1.458;2023-12-20T06:11:41;5.88;;;5.28;;
49722;SDS011;43484;43.608;1.458;2023-12-20T06:14:08;6.43;;;5.82;;
49722;SDS011;43484;43.608;1.458;2023-12-20T06:16:35;7.47;;;6.75;;
49722;SDS011;43484;43.608;1.458;2023-12-20T06:19:01;7.07;;;5.78;;
49722;SDS011;43484;43.608;1.458;2023-12-20T06:21:28;7.10;;;6.28;;
49722;SDS011;43484;43.608;1.458;2023-12-20T06:23:55;7.00;;;6.30;;
49722;SDS011;43484;43.608;1.458;2023-12-20T06:26:22;8.32;;;6.55;;
49722;SDS011;43484;43.608;1.458;2023-12-20T06:28:48;6.80;;;6.18;;
49722;SDS011;43484;43.608;1.458;2023-12-20T06:31:15;6.65;;;5.40;;
49722;SDS011;43484;43.608;1.458;2023-12-20T06:33:43;7.63;;;5.57;;
49722;SDS011;43484;43.608;1.458;2023-12-20T06:36:13;7.13;;;6.20;;
49722;SDS011;43484;43.608;1.458;2023-12-20T06:38:40;6.18;;;5.53;;
49722;SDS011;43484;43.608;1.458;2023-12-20T06:41:08;7.25;;;5.78;;
49722;SDS011;43484;43.608;1.458;2023-12-20T06:43:35;7.75;;;5.80;;
49722;SDS011;43484;43.608;1.458;2023-12-20T06:46:14;6.57;;;5.25;;
49722;SDS011;43484;43.608;1.458;2023-12-20T06:48:41;5.65;;;5.05;;
49722;SDS011;43484;43.608;1.458;2023-12-20T06:51:14;5.88;;;5.25;;
49722;SDS011;43484;43.608;1.458;2023-12-20T06:53:41;8.48;;;5.30;;
49722;SDS011;43484;43.608;1.458;2023-12-20T06:56:09;8.05;;;4.88;;
49722;SDS011;43484;43.608;1.458;2023-12-20T06:58:37;6.75;;;4.60;;
49722;SDS011;43484;43.608;1.458;2023-12-20T07:01:04;3.55;;;3.13;;
49722;SDS011;43484;43.608;1.458;2023-12-20T07:03:31;3.30;;;3.00;;
49722;SDS011;43484;43.608;1.458;2023-12-20T07:05:58;3.00;;;2.70;;
49722;SDS011;43484;43.608;1.458;2023-12-20T07:08:25;3.58;;;2.60;;
49722;SDS011;43484;43.608;1.458;2023-12-20T07:10:52;3.10;;;2.72;;
49722;SDS011;43484;43.608;1.458;2023-12-20T07:13:18;3.30;;;2.72;;
49722;SDS011;43484;43.608;1.458;2023-12-20T07:15:45;3.78;;;3.00;;
49722;SDS011;43484;43.608;1.458;2023-12-20T07:18:12;5.65;;;2.58;;
49722;SDS011;43484;43.608;1.458;2023-12-20T07:20:38;2.97;;;2.65;;
49722;SDS011;43484;43.608;1.458;2023-12-20T07:23:05;2.60;;;2.40;;
49722;SDS011;43484;43.608;1.458;2023-12-20T07:25:32;3.22;;;2.92;;
49722;SDS011;43484;43.608;1.458;2023-12-20T07:27:59;4.05;;;3.55;;
49722;SDS011;43484;43.608;1.458;2023-12-20T07:30:26;6.28;;;5.65;;
49722;SDS011;43484;43.608;1.458;2023-12-20T07:32:52;3.55;;;2.95;;
49722;SDS011;43484;43.608;1.458;2023-12-20T07:35:19;3.15;;;2.95;;
49722;SDS011;43484;43.608;1.458;2023-12-20T07:37:46;3.20;;;2.85;;
49722;SDS011;43484;43.608;1.458;2023-12-20T07:40:13;2.60;;;2.40;;
49722;SDS011;43484;43.608;1.458;2023-12-20T07:42:40;3.25;;;3.05;;
49722;SDS011;43484;43.608;1.458;2023-12-20T07:45:06;3.20;;;2.90;;
49722;SDS011;43484;43.608;1.458;2023-12-20T07:47:33;3.83;;;3.28;;
49722;SDS011;43484;43.608;1.458;2023-12-20T07:50:00;3.60;;;3.30;;
49722;SDS011;43484;43.608;1.458;2023-12-20T07:52:27;3.22;;;2.97;;
49722;SDS011;43484;43.608;1.458;2023-12-20T07:54:54;4.07;;;3.53;;
49722;SDS011;43484;43.608;1.458;2023-12-20T07:57:21;8.50;;;3.25;;
49722;SDS011;43484;43.608;1.458;2023-12-20T07:59:48;2.80;;;2.60;;
49722;SDS011;43484;43.608;1.458;2023-12-20T08:02:14;4.50;;;2.50;;
49722;SDS011;43484;43.608;1.458;2023-12-20T08:04:41;2.83;;;2.63;;
49722;SDS011;43484;43.608;1.458;2023-12-20T08:07:08;2.65;;;2.45;;
49722;SDS011;43484;43.608;1.458;2023-12-20T08:09:34;1.98;;;1.63;;
49722;SDS011;43484;43.608;1.458;2023-12-20T08:12:03;2.10;;;1.90;;
49722;SDS011;43484;43.608;1.458;2023-12-20T08:14:30;2.33;;;2.08;;
49722;SDS011;43484;43.608;1.458;2023-12-20T08:16:57;2.25;;;1.85;;
49722;SDS011;43484;43.608;1.458;2023-12-20T08:19:24;1.77;;;1.48;;
49722;SDS011;43484;43.608;1.458;2023-12-20T08:21:52;4.05;;;1.75;;
49722;SDS011;43484;43.608;1.458;2023-12-20T08:24:18;2.47;;;1.35;;
49722;SDS011;43484;43.608;1.458;2023-12-20T08:26:45;3.50;;;1.70;;
49722;SDS011;43484;43.608;1.458;2023-12-20T08:29:13;3.05;;;2.20;;
49722;SDS011;43484;43.608;1.458;2023-12-20T08:31:40;2.40;;;1.70;;
49722;SDS011;43484;43.608;1.458;2023-12-20T08:34:07;2.47;;;1.60;;
49722;SDS011;43484;43.608;1.458;2023-12-20T08:36:34;8.18;;;2.45;;
49722;SDS011;43484;43.608;1.458;2023-12-20T08:39:01;2.15;;;1.95;;
49722;SDS011;43484;43.608;1.458;2023-12-20T08:41:29;3.85;;;1.77;;
49722;SDS011;43484;43.608;1.458;2023-12-20T08:43:56;2.50;;;2.28;;
49722;SDS011;43484;43.608;1.458;2023-12-20T08:46:23;4.50;;;2.95;;
49722;SDS011;43484;43.608;1.458;2023-12-20T08:48:50;2.78;;;2.47;;
49722;SDS011;43484;43.608;1.458;2023-12-20T08:51:17;2.50;;;2.30;;
49722;SDS011;43484;43.608;1.458;2023-12-20T08:53:43;4.50;;;2.92;;
49722;SDS011;43484;43.608;1.458;2023-12-20T08:56:11;2.90;;;2.60;;
49722;SDS011;43484;43.608;1.458;2023-12-20T08:58:38;4.30;;;3.97;;
49722;SDS011;43484;43.608;1.458;2023-12-20T09:01:05;8.10;;;6.75;;
49722;SDS011;43484;43.608;1.458;2023-12-20T09:03:32;8.80;;;7.90;;
49722;SDS011;43484;43.608;1.458;2023-12-20T09:05:58;18.98;;;12.23;;
49722;SDS011;43484;43.608;1.458;2023-12-20T09:08:25;14.30;;;12.90;;
49722;SDS011;43484;43.608;1.458;2023-12-20T09:10:52;20.30;;;18.20;;
49722;SDS011;43484;43.608;1.458;2023-12-20T09:13:19;16.10;;;14.50;;
49722;SDS011;43484;43.608;1.458;2023-12-20T09:15:46;13.43;;;10.77;;
49722;SDS011;43484;43.608;1.458;2023-12-20T09:18:13;18.85;;;10.75;;
49722;SDS011;43484;43.608;1.458;2023-12-20T09:20:40;12.70;;;11.40;;
49722;SDS011;43484;43.608;1.458;2023-12-20T09:23:09;16.08;;;10.80;;
49722;SDS011;43484;43.608;1.458;2023-12-20T09:25:36;12.52;;;7.38;;
49722;SDS011;43484;43.608;1.458;2023-12-20T09:28:02;7.00;;;6.30;;
49722;SDS011;43484;43.608;1.458;2023-12-20T09:30:29;5.30;;;3.25;;
49722;SDS011;43484;43.608;1.458;2023-12-20T09:32:56;6.75;;;3.63;;
49722;SDS011;43484;43.608;1.458;2023-12-20T09:35:24;4.45;;;2.65;;
49722;SDS011;43484;43.608;1.458;2023-12-20T09:37:50;4.28;;;3.10;;
49722;SDS011;43484;43.608;1.458;2023-12-20T09:40:18;4.95;;;2.42;;
49722;SDS011;43484;43.608;1.458;2023-12-20T09:43:01;6.43;;;2.60;;
49722;SDS011;43484;43.608;1.458;2023-12-20T09:45:30;3.35;;;2.33;;
49722;SDS011;43484;43.608;1.458;2023-12-20T09:47:58;8.07;;;2.45;;
49722;SDS011;43484;43.608;1.458;2023-12-20T09:50:25;2.78;;;1.40;;
49722;SDS011;43484;43.608;1.458;2023-12-20T09:52:53;4.30;;;1.55;;
49722;SDS011;43484;43.608;1.458;2023-12-20T09:55:22;5.47;;;1.05;;
49722;SDS011;43484;43.608;1.458;2023-12-20T09:57:51;3.42;;;1.08;;
49722;SDS011;43484;43.608;1.458;2023-12-20T10:00:18;20.63;;;2.60;;
49722;SDS011;43484;43.608;1.458;2023-12-20T10:02:45;4.88;;;1.20;;
49722;SDS011;43484;43.608;1.458;2023-12-20T10:05:16;3.00;;;1.20;;
49722;SDS011;43484;43.608;1.458;2023-12-20T10:07:47;4.18;;;1.10;;
49722;SDS011;43484;43.608;1.458;2023-12-20T10:10:14;4.50;;;1.38;;
49722;SDS011;43484;43.608;1.458;2023-12-20T10:12:42;7.95;;;1.40;;
49722;SDS011;43484;43.608;1.458;2023-12-20T10:15:28;2.47;;;1.00;;
49722;SDS011;43484;43.608;1.458;2023-12-20T10:17:56;6.50;;;1.10;;
49722;SDS011;43484;43.608;1.458;2023-12-20T10:20:27;4.60;;;1.35;;
49722;SDS011;43484;43.608;1.458;2023-12-20T10:22:56;2.33;;;1.05;;
49722;SDS011;43484;43.608;1.458;2023-12-20T10:25:24;3.45;;;1.30;;
49722;SDS011;43484;43.608;1.458;2023-12-20T10:30:38;4.20;;;1.63;;
49722;SDS011;43484;43.608;1.458;2023-12-20T10:33:06;6.57;;;1.90;;
49722;SDS011;43484;43.608;1.458;2023-12-20T10:35:38;5.38;;;1.63;;
49722;SDS011;43484;43.608;1.458;2023-12-20T10:38:10;3.63;;;1.40;;
49722;SDS011;43484;43.608;1.458;2023-12-20T10:40:39;1.70;;;1.00;;
49722;SDS011;43484;43.608;1.458;2023-12-20T10:43:07;2.67;;;1.13;;
49722;SDS011;43484;43.608;1.458;2023-12-20T10:45:35;3.55;;;1.08;;
49722;SDS011;43484;43.608;1.458;2023-12-20T10:48:02;3.45;;;1.05;;
49722;SDS011;43484;43.608;1.458;2023-12-20T10:50:30;5.43;;;1.63;;
49722;SDS011;43484;43.608;1.458;2023-12-20T10:52:58;6.18;;;1.00;;
49722;SDS011;43484;43.608;1.458;2023-12-20T10:55:26;5.82;;;1.08;;
49722;SDS011;43484;43.608;1.458;2023-12-20T10:57:54;4.32;;;1.50;;
49722;SDS011;43484;43.608;1.458;2023-12-20T11:00:28;2.80;;;0.50;;
49722;SDS011;43484;43.608;1.458;2023-12-20T11:03:00;3.90;;;0.70;;
49722;SDS011;43484;43.608;1.458;2023-12-20T11:08:26;3.38;;;0.90;;
49722;SDS011;43484;43.608;1.458;2023-12-20T11:11:19;4.63;;;0.75;;
49722;SDS011;43484;43.608;1.458;2023-12-20T11:16:20;1.50;;;0.65;;
49722;SDS011;43484;43.608;1.458;2023-12-20T11:18:50;4.97;;;0.60;;
49722;SDS011;43484;43.608;1.458;2023-12-20T11:21:17;4.53;;;0.90;;
49722;SDS011;43484;43.608;1.458;2023-12-20T11:23:44;3.63;;;1.55;;
49722;SDS011;43484;43.608;1.458;2023-12-20T11:26:11;6.15;;;0.80;;
49722;SDS011;43484;43.608;1.458;2023-12-20T11:28:37;2.95;;;0.90;;
49722;SDS011;43484;43.608;1.458;2023-12-20T11:31:04;7.60;;;1.00;;
49722;SDS011;43484;43.608;1.458;2023-12-20T11:33:36;6.68;;;1.20;;
49722;SDS011;43484;43.608;1.458;2023-12-20T11:36:07;4.07;;;1.00;;
49722;SDS011;43484;43.608;1.458;2023-12-20T11:38:56;2.22;;;0.70;;
49722;SDS011;43484;43.608;1.458;2023-12-20T11:41:24;14.55;;;1.13;;
49722;SDS011;43484;43.608;1.458;2023-12-20T11:43:55;4.93;;;0.73;;
49722;SDS011;43484;43.608;1.458;2023-12-20T11:46:22;7.15;;;1.85;;
49722;SDS011;43484;43.608;1.458;2023-12-20T11:48:50;5.05;;;1.00;;
49722;SDS011;43484;43.608;1.458;2023-12-20T11:51:17;4.55;;;0.82;;
49722;SDS011;43484;43.608;1.458;2023-12-20T11:53:43;4.80;;;1.23;;
49722;SDS011;43484;43.608;1.458;2023-12-20T11:56:10;5.05;;;0.80;;
49722;SDS011;43484;43.608;1.458;2023-12-20T11:58:37;6.22;;;0.82;;
49722;SDS011;43484;43.608;1.458;2023-12-20T12:01:04;3.83;;;0.93;;
49722;SDS011;43484;43.608;1.458;2023-12-20T12:03:34;2.72;;;1.08;;
49722;SDS011;43484;43.608;1.458;2023-12-20T12:06:03;3.58;;;0.40;;
49722;SDS011;43484;43.608;1.458;2023-12-20T12:08:31;6.05;;;0.93;;
49722;SDS011;43484;43.608;1.458;2023-12-20T12:10:58;1.92;;;0.50;;
49722;SDS011;43484;43.608;1.458;2023-12-20T12:13:25;8.07;;;0.80;;
49722;SDS011;43484;43.608;1.458;2023-12-20T12:15:54;1.45;;;0.50;;
49722;SDS011;43484;43.608;1.458;2023-12-20T12:18:21;2.38;;;0.65;;
49722;SDS011;43484;43.608;1.458;2023-12-20T12:20:48;3.22;;;0.70;;
49722;SDS011;43484;43.608;1.458;2023-12-20T12:23:14;3.83;;;1.42;;
49722;SDS011;43484;43.608;1.458;2023-12-20T12:25:50;4.10;;;0.65;;
49722;SDS011;43484;43.608;1.458;2023-12-20T12:28:16;6.78;;;0.80;;
49722;SDS011;43484;43.608;1.458;2023-12-20T12:30:55;6.28;;;0.90;;
49722;SDS011;43484;43.608;1.458;2023-12-20T12:33:26;9.40;;;1.35;;
49722;SDS011;43484;43.608;1.458;2023-12-20T12:35:54;6.05;;;1.00;;
49722;SDS011;43484;43.608;1.458;2023-12-20T12:38:21;7.03;;;1.33;;
49722;SDS011;43484;43.608;1.458;2023-12-20T12:40:49;9.63;;;1.13;;
49722;SDS011;43484;43.608;1.458;2023-12-20T12:43:16;8.60;;;0.95;;
49722;SDS011;43484;43.608;1.458;2023-12-20T12:45:43;4.90;;;0.70;;
49722;SDS011;43484;43.608;1.458;2023-12-20T12:48:10;4.00;;;0.68;;
49722;SDS011;43484;43.608;1.458;2023-12-20T12:50:37;6.32;;;1.45;;
49722;SDS011;43484;43.608;1.458;2023-12-20T12:53:04;7.43;;;0.60;;
49722;SDS011;43484;43.608;1.458;2023-12-20T12:55:31;4.63;;;0.68;;
49722;SDS011;43484;43.608;1.458;2023-12-20T12:57:58;13.80;;;2.03;;
49722;SDS011;43484;43.608;1.458;2023-12-20T13:00:24;5.45;;;0.85;;
49722;SDS011;43484;43.608;1.458;2023-12-20T13:02:52;8.98;;;1.25;;
49722;SDS011;43484;43.608;1.458;2023-12-20T13:05:19;8.27;;;1.08;;
49722;SDS011;43484;43.608;1.458;2023-12-20T13:07:46;8.75;;;0.82;;
49722;SDS011;43484;43.608;1.458;2023-12-20T13:10:13;6.78;;;1.98;;
49722;SDS011;43484;43.608;1.458;2023-12-20T13:12:43;4.22;;;0.82;;
49722;SDS011;43484;43.608;1.458;2023-12-20T13:15:09;6.03;;;1.23;;
49722;SDS011;43484;43.608;1.458;2023-12-20T13:17:36;3.03;;;0.55;;
49722;SDS011;43484;43.608;1.458;2023-12-20T13:20:04;5.30;;;0.75;;
49722;SDS011;43484;43.608;1.458;2023-12-20T13:22:32;3.70;;;0.93;;
49722;SDS011;43484;43.608;1.458;2023-12-20T13:24:59;4.93;;;0.70;;
49722;SDS011;43484;43.608;1.458;2023-12-20T13:27:26;3.45;;;0.60;;
49722;SDS011;43484;43.608;1.458;2023-12-20T13:29:53;6.80;;;0.70;;
49722;SDS011;43484;43.608;1.458;2023-12-20T13:32:19;6.57;;;0.80;;
49722;SDS011;43484;43.608;1.458;2023-12-20T13:34:46;2.97;;;0.80;;
49722;SDS011;43484;43.608;1.458;2023-12-20T13:37:14;10.15;;;1.30;;
49722;SDS011;43484;43.608;1.458;2023-12-20T13:39:41;4.93;;;0.50;;
49722;SDS011;43484;43.608;1.458;2023-12-20T13:42:07;12.70;;;1.40;;
49722;SDS011;43484;43.608;1.458;2023-12-20T13:44:34;3.42;;;0.60;;
49722;SDS011;43484;43.608;1.458;2023-12-20T13:47:01;8.77;;;1.77;;
49722;SDS011;43484;43.608;1.458;2023-12-20T13:49:28;5.22;;;1.30;;
49722;SDS011;43484;43.608;1.458;2023-12-20T13:51:55;9.90;;;1.83;;
49722;SDS011;43484;43.608;1.458;2023-12-20T13:54:24;7.20;;;1.13;;
49722;SDS011;43484;43.608;1.458;2023-12-20T13:56:50;7.45;;;0.90;;
49722;SDS011;43484;43.608;1.458;2023-12-20T13:59:34;5.25;;;0.70;;
49722;SDS011;43484;43.608;1.458;2023-12-20T14:02:01;5.72;;;0.80;;
49722;SDS011;43484;43.608;1.458;2023-12-20T14:04:30;8.07;;;0.80;;
49722;SDS011;43484;43.608;1.458;2023-12-20T14:07:08;9.00;;;1.85;;
49722;SDS011;43484;43.608;1.458;2023-12-20T14:09:38;6.45;;;1.42;;
49722;SDS011;43484;43.608;1.458;2023-12-20T14:12:05;9.07;;;0.93;;
49722;SDS011;43484;43.608;1.458;2023-12-20T14:14:32;6.20;;;1.10;;
49722;SDS011;43484;43.608;1.458;2023-12-20T14:16:58;8.52;;;1.83;;
49722;SDS011;43484;43.608;1.458;2023-12-20T14:19:25;7.30;;;1.35;;
49722;SDS011;43484;43.608;1.458;2023-12-20T14:21:52;3.72;;;1.33;;
49722;SDS011;43484;43.608;1.458;2023-12-20T14:24:18;9.00;;;1.20;;
49722;SDS011;43484;43.608;1.458;2023-12-20T14:26:45;10.48;;;1.40;;
49722;SDS011;43484;43.608;1.458;2023-12-20T14:29:11;8.20;;;1.70;;
49722;SDS011;43484;43.608;1.458;2023-12-20T14:31:38;8.10;;;1.25;;
49722;SDS011;43484;43.608;1.458;2023-12-20T14:34:06;9.27;;;1.60;;
49722;SDS011;43484;43.608;1.458;2023-12-20T14:36:34;17.05;;;2.63;;
49722;SDS011;43484;43.608;1.458;2023-12-20T14:39:01;7.78;;;1.23;;
49722;SDS011;43484;43.608;1.458;2023-12-20T14:41:30;9.95;;;1.58;;
49722;SDS011;43484;43.608;1.458;2023-12-20T14:43:58;9.65;;;2.47;;
49722;SDS011;43484;43.608;1.458;2023-12-20T14:46:26;13.57;;;2.47;;
49722;SDS011;43484;43.608;1.458;2023-12-20T14:48:53;6.68;;;1.40;;